Overview Statistics Trail Chart Weather Telemetry Raw packets
 

This is the latest recevied weather packets stored in our database for station/object OK4PZ-4. If no packets are shown the sender has not sent any weather packets the latest 10 day(s).

<< 1 2 3 4 >>
Time Temp. Humidity Pressure Rain* Wind** Luminosity Snow
1788567071 26.11° C 50% 1011.4 hPa 0 mm - - -
1788566838 26.11° C 50% 1011.3 hPa 0 mm - - -
1788563112 26.67° C 48% 1010.9 hPa 0 mm - - -
1788559153 24.44° C 55% 1010.3 hPa 0 mm - - -
1788555194 23.33° C 58% 1010.2 hPa 0 mm - - -
1788551234 23.89° C 53% 1010.6 hPa 0 mm - - -
1788547628 25.56° C 45% 1010.5 hPa 0 mm - - -
1788547508 25.56° C 45% 1010.5 hPa 0 mm - - -
1788547275 25.56° C 45% 1010.4 hPa 0 mm - - -
1788543549 29.44° C 36% 1009.6 hPa 0 mm - - -
1788539711 31.67° C 31% 1009.8 hPa 0 mm - - -
1788539590 31.67° C 31% 1009.8 hPa 0 mm - - -
1788535631 32.22° C 30% 1010.3 hPa 0 mm - - -
1788531672 33.33° C 29% 1011.2 hPa 0 mm - - -
1788527945 31.67° C 34% 1012.3 hPa 0 mm - - -
1788527712 31.67° C 34% 1012.3 hPa 0 mm - - -
1788523986 31.11° C 37% 1013.2 hPa 0 mm - - -
1788523753 31.11° C 37% 1013.1 hPa 0 mm - - -
1788520027 28.89° C 43% 1014.2 hPa 0 mm - - -
1788516067 28.33° C 46% 1014.9 hPa 0 mm - - -
1788512108 25.56° C 61% 1016.1 hPa 0 mm - - -
1788508382 24.44° C 65% 1016.3 hPa 0 mm - - -
1788508149 24.44° C 66% 1016.3 hPa 0 mm - - -
1788504423 22.22° C 82% 1016.5 hPa 0 mm - - -
1788504190 22.22° C 83% 1016.4 hPa 0 mm - - -

* Rain since midnight (hover to see other rain measurements)
** Current wind speed in m/s (hover to see current wind gust speed)